createdAt,value
2022-10-02T00:01:05.017Z,144.50
2022-10-02T00:03:37.208Z,147.05
2022-10-02T00:06:09.325Z,146.38
2022-10-02T00:08:39.159Z,150.27
2022-10-02T00:11:10.670Z,154.40
2022-10-02T00:13:41.161Z,150.85
2022-10-02T00:16:18.130Z,146.20
2022-10-02T00:18:47.094Z,142.88
2022-10-02T00:21:24.101Z,148.63
2022-10-02T00:23:54.942Z,139.20
2022-10-02T00:26:26.281Z,141.18
2022-10-02T00:29:00.281Z,143.10
2022-10-02T00:31:35.443Z,143.45
2022-10-02T00:34:19.836Z,141.30
2022-10-02T00:36:55.258Z,144.07
2022-10-02T00:39:32.474Z,146.60
2022-10-02T00:42:20.221Z,141.05
2022-10-02T00:44:56.156Z,146.05
2022-10-02T00:47:31.193Z,146.43
2022-10-02T00:50:05.348Z,145.07
2022-10-02T00:53:00.748Z,149.73
2022-10-02T00:55:46.790Z,142.27
2022-10-02T00:58:32.233Z,145.25
2022-10-02T01:01:04.803Z,145.23
2022-10-02T01:03:35.944Z,140.73
2022-10-02T01:06:04.402Z,147.50
2022-10-02T01:08:32.584Z,138.80
2022-10-02T01:11:01.155Z,141.43
2022-10-02T01:13:31.619Z,144.27
2022-10-02T01:16:01.258Z,146.50
2022-10-02T01:18:30.767Z,147.43
2022-10-02T01:21:01.331Z,151.25
2022-10-02T01:23:33.490Z,154.48
2022-10-02T01:26:03.076Z,161.32
2022-10-02T01:28:31.121Z,153.15
2022-10-02T01:31:01.957Z,156.48
2022-10-02T01:33:29.994Z,157.90
2022-10-02T01:35:58.335Z,158.32
2022-10-02T01:38:26.980Z,158.30
2022-10-02T01:40:54.905Z,160.75
2022-10-02T01:43:26.557Z,163.60
2022-10-02T01:46:00.580Z,154.82
2022-10-02T01:48:39.987Z,152.45
2022-10-02T01:51:18.461Z,156.68
2022-10-02T01:53:50.390Z,156.70
2022-10-02T01:56:22.674Z,162.75
2022-10-02T01:59:00.752Z,156.77
2022-10-02T02:01:41.636Z,155.10
2022-10-02T02:04:16.635Z,147.43
2022-10-02T02:06:51.160Z,152.48
2022-10-02T02:09:22.455Z,150.48
2022-10-02T02:11:54.914Z,147.93
2022-10-02T02:14:27.057Z,147.13
2022-10-02T02:16:57.546Z,144.45
2022-10-02T02:19:27.623Z,140.02
2022-10-02T02:21:59.293Z,137.48
2022-10-02T02:24:29.488Z,134.38
2022-10-02T02:27:00.114Z,143.55
2022-10-02T02:29:31.405Z,138.15
2022-10-02T02:32:01.085Z,143.23
2022-10-02T02:34:31.711Z,141.38
2022-10-02T02:37:06.014Z,144.35
2022-10-02T02:39:37.910Z,153.50
2022-10-02T02:42:09.109Z,150.57
2022-10-02T02:44:41.889Z,154.38
2022-10-02T02:47:12.900Z,151.27
2022-10-02T02:49:49.476Z,147.23
2022-10-02T02:52:20.828Z,152.43
2022-10-02T02:54:54.062Z,149.68
2022-10-02T02:57:27.279Z,151.65
2022-10-02T02:59:59.637Z,159.32
2022-10-02T03:02:27.621Z,152.80
2022-10-02T03:04:55.534Z,165.15
2022-10-02T03:07:23.676Z,150.88
2022-10-02T03:10:01.580Z,148.13
2022-10-02T03:12:40.972Z,150.10
2022-10-02T03:15:28.518Z,153.25
2022-10-02T03:18:11.659Z,147.95
2022-10-02T03:20:43.941Z,149.57
2022-10-02T03:23:18.629Z,154.57
2022-10-02T03:25:53.009Z,146.70
2022-10-02T03:28:50.510Z,140.77
2022-10-02T03:31:16.292Z,139.20
2022-10-02T03:33:45.340Z,141.07
2022-10-02T03:36:14.269Z,144.48
2022-10-02T03:38:43.454Z,139.73
2022-10-02T03:41:11.309Z,141.73
2022-10-02T03:43:39.696Z,147.23
2022-10-02T03:46:07.908Z,141.63
2022-10-02T03:48:39.131Z,130.48
2022-10-02T03:51:07.346Z,145.27
2022-10-02T03:53:35.601Z,153.38
2022-10-02T03:56:09.056Z,153.63
2022-10-02T03:58:39.671Z,148.10
2022-10-02T04:01:12.352Z,146.00
2022-10-02T04:03:47.029Z,148.88
2022-10-02T04:06:17.266Z,152.40
2022-10-02T04:08:47.527Z,149.07
2022-10-02T04:11:18.789Z,147.60
2022-10-02T04:13:49.824Z,136.80
2022-10-02T04:16:20.287Z,146.43
2022-10-02T04:18:54.862Z,144.73
2022-10-02T04:21:31.129Z,145.40
2022-10-02T04:24:03.575Z,145.93
2022-10-02T04:26:35.607Z,142.88
2022-10-02T04:29:10.295Z,150.80
2022-10-02T04:31:38.409Z,146.48
2022-10-02T04:34:11.687Z,151.70
2022-10-02T04:36:47.287Z,149.55
2022-10-02T04:39:26.108Z,146.13
2022-10-02T04:42:02.973Z,150.95
2022-10-02T04:44:47.773Z,145.95
2022-10-02T04:47:29.973Z,144.57
2022-10-02T04:50:20.318Z,139.63
2022-10-02T04:53:12.069Z,147.43
2022-10-02T04:55:53.836Z,133.25
2022-10-02T04:58:47.463Z,138.88
2022-10-02T05:01:26.304Z,141.73
2022-10-02T05:04:05.536Z,140.07
2022-10-02T05:06:43.214Z,134.95
2022-10-02T05:09:18.048Z,137.55
2022-10-02T05:11:55.209Z,138.43
2022-10-02T05:14:37.421Z,139.60
2022-10-02T05:17:16.153Z,143.63
2022-10-02T05:20:03.749Z,143.10
2022-10-02T05:22:50.133Z,142.73
2022-10-02T05:25:39.233Z,144.32
2022-10-02T05:28:28.586Z,148.32
2022-10-02T05:31:05.342Z,142.88
2022-10-02T05:33:48.647Z,140.75
2022-10-02T05:36:47.605Z,152.95
2022-10-02T05:39:21.273Z,144.40
2022-10-02T05:41:54.277Z,144.70
2022-10-02T05:44:27.630Z,144.27
2022-10-02T05:47:01.774Z,150.20
2022-10-02T05:49:35.020Z,153.40
2022-10-02T05:52:06.955Z,153.10
2022-10-02T05:54:43.901Z,154.50
2022-10-02T05:57:18.379Z,147.85
2022-10-02T05:59:52.924Z,150.32
2022-10-02T06:02:28.254Z,141.85
2022-10-02T06:05:01.604Z,155.77
2022-10-02T06:07:31.216Z,155.75
2022-10-02T06:10:04.171Z,159.30
2022-10-02T06:12:35.509Z,159.85
2022-10-02T06:15:08.091Z,161.02
2022-10-02T06:17:40.091Z,158.35
2022-10-02T06:20:16.331Z,167.77
2022-10-02T06:22:48.084Z,167.50
2022-10-02T06:25:22.481Z,167.15
2022-10-02T06:27:56.173Z,175.98
2022-10-02T06:30:24.744Z,173.05
2022-10-02T06:32:56.370Z,171.40
2022-10-02T06:35:37.820Z,166.20
2022-10-02T06:38:17.661Z,177.32
2022-10-02T06:40:51.747Z,165.70
2022-10-02T06:43:33.881Z,164.57
2022-10-02T06:46:10.628Z,162.20
2022-10-02T06:48:44.074Z,159.30
2022-10-02T06:51:18.841Z,156.35
2022-10-02T06:54:22.940Z,160.13
2022-10-02T06:57:14.370Z,162.45
2022-10-02T06:59:55.803Z,156.40
2022-10-02T07:02:45.111Z,158.52
2022-10-02T07:06:01.287Z,174.38
2022-10-02T07:08:37.979Z,168.45
2022-10-02T07:11:12.699Z,172.32
2022-10-02T07:13:53.494Z,177.20
2022-10-02T07:16:41.541Z,186.80
2022-10-02T07:19:22.965Z,180.07
2022-10-02T07:21:58.694Z,176.52
2022-10-02T07:24:50.462Z,176.10
2022-10-02T07:27:22.629Z,179.65
2022-10-02T07:29:55.813Z,172.20
2022-10-02T07:32:42.944Z,175.15
2022-10-02T07:35:45.121Z,178.15
2022-10-02T07:38:24.811Z,174.57
2022-10-02T07:41:01.393Z,186.90
2022-10-02T07:43:39.257Z,179.23
2022-10-02T07:46:17.046Z,177.45
2022-10-02T07:48:55.158Z,175.77
2022-10-02T07:51:50.242Z,177.98
2022-10-02T07:54:33.959Z,179.15
2022-10-02T07:57:09.083Z,179.63
2022-10-02T07:59:41.267Z,169.20
2022-10-02T08:02:28.342Z,176.75
2022-10-02T08:04:59.672Z,175.90
2022-10-02T08:07:28.673Z,173.65
2022-10-02T08:09:57.892Z,181.07
2022-10-02T08:12:29.068Z,182.73
2022-10-02T08:14:57.689Z,176.50
2022-10-02T08:17:31.963Z,182.70
2022-10-02T08:20:05.286Z,179.07
2022-10-02T08:22:36.946Z,168.60
2022-10-02T08:25:10.142Z,158.35
2022-10-02T08:27:49.148Z,169.40
2022-10-02T08:30:18.531Z,153.93
2022-10-02T08:32:48.909Z,161.60
2022-10-02T08:35:17.910Z,140.13
2022-10-02T08:37:59.891Z,138.13
2022-10-02T08:41:05.136Z,138.93
2022-10-02T08:43:55.654Z,134.40
2022-10-02T08:46:58.681Z,130.70
2022-10-02T08:50:08.104Z,126.88
2022-10-02T08:53:24.974Z,128.65
2022-10-02T08:56:23.372Z,131.02
2022-10-02T08:59:19.189Z,135.27
2022-10-02T09:02:09.460Z,126.90
2022-10-02T09:05:19.965Z,128.88
2022-10-02T09:08:19.696Z,125.45
2022-10-02T09:11:02.046Z,125.80
2022-10-02T09:13:51.897Z,135.13
2022-10-02T09:16:29.348Z,134.77
2022-10-02T09:19:03.142Z,131.70
2022-10-02T09:21:52.559Z,135.30
2022-10-02T09:24:46.813Z,131.48
2022-10-02T09:27:38.859Z,141.07
2022-10-02T09:30:33.352Z,130.00
2022-10-02T09:33:43.351Z,135.65
2022-10-02T09:36:47.044Z,133.38
2022-10-02T09:39:33.723Z,134.45
2022-10-02T09:42:40.042Z,135.85
2022-10-02T09:45:51.501Z,137.15
2022-10-02T09:49:03.161Z,140.50
2022-10-02T09:52:02.573Z,140.02
2022-10-02T09:55:10.763Z,141.15
2022-10-02T09:58:09.950Z,148.18
2022-10-02T10:00:55.220Z,149.23
2022-10-02T10:03:43.942Z,165.90
2022-10-02T10:06:31.366Z,165.50
2022-10-02T10:09:44.625Z,167.68
2022-10-02T10:12:49.502Z,178.15
2022-10-02T10:15:58.701Z,176.30
2022-10-02T10:18:49.836Z,184.95
2022-10-02T10:21:38.398Z,177.55
2022-10-02T10:24:16.754Z,178.05
2022-10-02T10:27:11.898Z,180.60
2022-10-02T10:30:01.830Z,178.48
2022-10-02T10:33:04.686Z,181.75
2022-10-02T10:35:48.400Z,180.90
2022-10-02T10:38:38.543Z,177.07
2022-10-02T10:41:19.478Z,176.88
2022-10-02T10:44:15.662Z,176.05
2022-10-02T10:47:04.232Z,179.75
2022-10-02T10:50:04.086Z,174.98
2022-10-02T10:53:04.571Z,191.90
2022-10-02T10:55:50.567Z,176.63
2022-10-02T10:58:23.144Z,177.32
2022-10-02T11:01:07.079Z,179.35
2022-10-02T11:03:58.475Z,175.85
2022-10-02T11:07:01.156Z,170.63
2022-10-02T11:09:47.834Z,164.23
2022-10-02T11:12:28.268Z,167.32
2022-10-02T11:15:07.469Z,175.93
2022-10-02T11:17:54.125Z,174.38
2022-10-02T11:21:01.190Z,170.10
2022-10-02T11:23:48.369Z,172.23
2022-10-02T11:26:39.022Z,177.80
2022-10-02T11:29:53.008Z,171.27
2022-10-02T11:32:44.461Z,171.30
2022-10-02T11:35:21.195Z,171.18
2022-10-02T11:38:07.066Z,176.98
2022-10-02T11:40:50.943Z,173.57
2022-10-02T11:43:29.380Z,174.15
2022-10-02T11:46:09.652Z,163.40
2022-10-02T11:49:20.292Z,169.35
2022-10-02T11:52:08.822Z,168.70
2022-10-02T11:54:50.048Z,171.65
2022-10-02T11:57:36.140Z,177.68
2022-10-02T12:00:12.501Z,157.65
2022-10-02T12:02:45.858Z,154.23
2022-10-02T12:05:39.288Z,155.18
2022-10-02T12:08:14.975Z,151.38
2022-10-02T12:10:50.293Z,144.88
2022-10-02T12:13:31.838Z,158.90
2022-10-02T12:16:07.829Z,151.52
2022-10-02T12:18:46.719Z,158.27
2022-10-02T12:21:44.244Z,175.18
2022-10-02T12:24:34.545Z,158.07
2022-10-02T12:27:10.660Z,157.43
2022-10-02T12:29:46.171Z,154.60
2022-10-02T12:32:26.364Z,154.73
2022-10-02T12:35:02.512Z,155.35
2022-10-02T12:37:36.034Z,153.35
2022-10-02T12:40:10.220Z,154.15
2022-10-02T12:43:05.563Z,152.23
2022-10-02T12:45:48.239Z,156.15
2022-10-02T12:48:24.797Z,156.98
2022-10-02T12:51:10.186Z,157.48
2022-10-02T12:54:03.921Z,153.90
2022-10-02T12:56:46.140Z,160.60
2022-10-02T12:59:18.872Z,146.40
2022-10-02T13:02:20.382Z,151.05
2022-10-02T13:05:46.957Z,133.25
2022-10-02T13:08:29.604Z,145.13
2022-10-02T13:11:04.652Z,145.00
2022-10-02T13:13:55.729Z,148.45
2022-10-02T13:16:29.495Z,141.73
2022-10-02T13:19:09.189Z,147.13
2022-10-02T13:21:47.361Z,146.25
2022-10-02T13:24:42.524Z,154.60
2022-10-02T13:27:21.277Z,155.25
2022-10-02T13:29:59.683Z,158.48
2022-10-02T13:32:48.207Z,158.52
2022-10-02T13:35:36.039Z,158.88
2022-10-02T13:38:25.569Z,155.05
2022-10-02T13:41:01.568Z,158.93
2022-10-02T13:43:40.915Z,161.32
2022-10-02T13:46:18.471Z,147.95
2022-10-02T13:48:55.250Z,154.00
2022-10-02T13:51:30.697Z,149.60
2022-10-02T13:54:11.749Z,152.93
2022-10-02T13:56:49.963Z,158.23
2022-10-02T13:59:29.049Z,161.45
2022-10-02T14:02:08.704Z,161.20
2022-10-02T14:04:46.277Z,157.82
2022-10-02T14:07:29.116Z,151.13
2022-10-02T14:10:05.367Z,163.80
2022-10-02T14:12:41.928Z,157.27
2022-10-02T14:15:26.804Z,167.48
2022-10-02T14:18:20.453Z,215.25
2022-10-02T14:20:52.902Z,185.98
2022-10-02T14:23:40.131Z,193.70
2022-10-02T14:26:15.205Z,171.63
2022-10-02T14:29:06.231Z,155.18
2022-10-02T14:31:58.025Z,162.15
2022-10-02T14:34:49.725Z,151.75
2022-10-02T14:37:31.814Z,147.10
2022-10-02T14:40:03.285Z,148.77
2022-10-02T14:42:39.142Z,140.43
2022-10-02T14:45:23.060Z,146.55
2022-10-02T14:48:12.612Z,134.55
2022-10-02T14:50:49.383Z,137.50
2022-10-02T14:53:56.244Z,140.13
2022-10-02T14:56:35.024Z,135.10
2022-10-02T14:59:13.196Z,137.18
2022-10-02T15:01:46.904Z,134.75
2022-10-02T15:04:26.729Z,133.68
2022-10-02T15:07:06.316Z,135.65
2022-10-02T15:09:41.745Z,140.23
2022-10-02T15:12:17.928Z,138.73
2022-10-02T15:14:55.655Z,145.68
2022-10-02T15:17:51.387Z,140.13
2022-10-02T15:20:27.850Z,138.38
2022-10-02T15:22:59.952Z,142.75
2022-10-02T15:25:49.208Z,139.43
2022-10-02T15:28:36.314Z,143.02
2022-10-02T15:31:13.046Z,140.95
2022-10-02T15:33:44.030Z,142.98
2022-10-02T15:36:41.386Z,141.43
2022-10-02T15:39:27.336Z,144.10
2022-10-02T15:42:05.232Z,142.43
2022-10-02T15:44:55.215Z,141.52
2022-10-02T15:47:35.868Z,142.48
2022-10-02T15:50:13.097Z,136.95
2022-10-02T15:52:45.205Z,143.77
2022-10-02T15:55:21.222Z,139.98
2022-10-02T15:58:03.993Z,142.32
2022-10-02T16:00:59.137Z,142.15
2022-10-02T16:03:32.826Z,141.82
2022-10-02T16:06:03.662Z,160.85
2022-10-02T16:09:03.714Z,169.63
2022-10-02T16:11:55.298Z,165.60
2022-10-02T16:14:31.344Z,166.90
2022-10-02T16:17:24.130Z,167.32
2022-10-02T16:20:23.549Z,166.10
2022-10-02T16:23:02.657Z,169.95
2022-10-02T16:25:41.756Z,170.23
2022-10-02T16:28:21.068Z,178.00
2022-10-02T16:31:05.885Z,181.25
2022-10-02T16:33:43.077Z,184.48
2022-10-02T16:36:31.896Z,181.98
2022-10-02T16:39:15.577Z,189.55
2022-10-02T16:41:58.721Z,183.82
2022-10-02T16:45:02.659Z,189.65
2022-10-02T16:47:35.666Z,187.27
2022-10-02T16:50:15.122Z,196.43
2022-10-02T16:52:47.869Z,197.05
2022-10-02T16:55:22.631Z,200.93
2022-10-02T16:57:55.830Z,197.80
2022-10-02T17:00:27.666Z,193.05
2022-10-02T17:02:58.700Z,200.82
2022-10-02T17:05:31.797Z,196.48
2022-10-02T17:08:02.809Z,199.52
2022-10-02T17:10:39.716Z,196.50
2022-10-02T17:13:17.033Z,199.18
2022-10-02T17:15:48.913Z,184.55
2022-10-02T17:18:25.681Z,186.35
2022-10-02T17:20:56.597Z,190.15
2022-10-02T17:23:29.753Z,193.85
2022-10-02T17:26:02.915Z,188.55
2022-10-02T17:28:36.833Z,192.13
2022-10-02T17:31:24.526Z,183.20
2022-10-02T17:33:54.035Z,182.40
2022-10-02T17:36:30.798Z,185.85
2022-10-02T17:39:22.476Z,173.65
2022-10-02T17:41:55.833Z,172.68
2022-10-02T17:44:39.893Z,169.45
2022-10-02T17:50:27.788Z,167.60
2022-10-02T17:53:16.740Z,168.40
2022-10-02T17:56:30.495Z,173.45
2022-10-02T17:59:40.150Z,171.65
2022-10-02T18:02:19.438Z,169.27
2022-10-02T18:04:59.268Z,166.98
2022-10-02T18:07:38.514Z,166.43
2022-10-02T18:10:17.638Z,160.50
2022-10-02T18:12:57.825Z,159.73
2022-10-02T18:15:34.240Z,158.63
2022-10-02T18:18:15.336Z,146.10
2022-10-02T18:20:51.207Z,153.77
2022-10-02T18:23:37.326Z,164.98
2022-10-02T18:26:18.945Z,155.20
2022-10-02T18:29:03.801Z,151.75
2022-10-02T18:31:55.746Z,157.43
2022-10-02T18:34:50.125Z,159.45
2022-10-02T18:37:28.232Z,156.55
2022-10-02T18:40:07.263Z,160.95
2022-10-02T18:42:48.029Z,160.20
2022-10-02T18:45:37.397Z,154.82
2022-10-02T18:48:19.999Z,159.02
2022-10-02T18:51:08.898Z,157.00
2022-10-02T18:53:47.572Z,163.30
2022-10-02T18:56:22.440Z,152.35
2022-10-02T18:59:02.616Z,154.48
2022-10-02T19:01:46.131Z,160.13
2022-10-02T19:04:31.264Z,151.88
2022-10-02T19:07:05.658Z,152.82
2022-10-02T19:09:35.909Z,151.48
2022-10-02T19:12:15.718Z,158.68
2022-10-02T19:14:49.329Z,150.98
2022-10-02T19:17:19.842Z,152.38
2022-10-02T19:19:47.649Z,151.43
2022-10-02T19:22:21.618Z,150.52
2022-10-02T19:24:52.099Z,153.77
2022-10-02T19:27:25.283Z,162.38
2022-10-02T19:29:57.982Z,164.32
2022-10-02T19:32:28.039Z,161.73
2022-10-02T19:35:04.191Z,166.90
2022-10-02T19:37:34.125Z,157.80
2022-10-02T19:40:04.104Z,167.65
2022-10-02T19:42:38.760Z,159.43
2022-10-02T19:45:09.900Z,164.20
2022-10-02T19:47:41.713Z,167.95
2022-10-02T19:50:21.928Z,167.85
2022-10-02T19:52:54.087Z,168.50
2022-10-02T19:55:24.136Z,167.95
2022-10-02T19:57:55.346Z,162.48
2022-10-02T20:00:26.275Z,160.27
2022-10-02T20:02:56.648Z,171.10
2022-10-02T20:05:26.528Z,172.05
2022-10-02T20:08:01.871Z,163.63
2022-10-02T20:10:34.251Z,168.05
2022-10-02T20:13:08.053Z,176.88
2022-10-02T20:16:00.141Z,167.27
2022-10-02T20:18:28.109Z,165.40
2022-10-02T20:20:59.893Z,164.35
2022-10-02T20:23:29.869Z,159.82
2022-10-02T20:25:59.570Z,166.80
2022-10-02T20:28:30.712Z,164.43
2022-10-02T20:31:03.580Z,160.95
2022-10-02T20:33:36.479Z,166.70
2022-10-02T20:36:09.185Z,164.75
2022-10-02T20:38:40.509Z,164.30
2022-10-02T20:41:13.381Z,160.57
2022-10-02T20:43:45.064Z,154.45
2022-10-02T20:46:42.101Z,154.93
2022-10-02T20:49:52.777Z,150.48
2022-10-02T20:52:52.349Z,148.02
2022-10-02T20:55:26.626Z,153.35
2022-10-02T20:58:31.698Z,153.95
2022-10-02T21:01:15.554Z,152.82
2022-10-02T21:04:07.011Z,150.18
2022-10-02T21:06:47.415Z,151.63
2022-10-02T21:09:49.576Z,152.82
2022-10-02T21:12:44.919Z,155.93
2022-10-02T21:15:31.047Z,154.43
2022-10-02T21:18:19.830Z,164.10
2022-10-02T21:21:03.254Z,158.70
2022-10-02T21:24:08.878Z,159.80
2022-10-02T21:26:57.492Z,171.32
2022-10-02T21:29:35.458Z,173.30
2022-10-02T21:32:27.765Z,170.38
2022-10-02T21:35:17.656Z,167.45
2022-10-02T21:37:58.491Z,175.80
2022-10-02T21:41:08.129Z,172.95
2022-10-02T21:44:11.349Z,184.70
2022-10-02T21:47:01.369Z,185.00
2022-10-02T21:50:04.446Z,183.07
2022-10-02T21:53:15.425Z,186.85
2022-10-02T21:56:01.194Z,188.57
2022-10-02T21:59:06.832Z,193.52
2022-10-02T22:02:08.563Z,191.02
2022-10-02T22:04:53.305Z,185.20
2022-10-02T22:07:22.832Z,186.73
2022-10-02T22:09:57.241Z,183.32
2022-10-02T22:12:38.419Z,173.38
2022-10-02T22:15:13.290Z,180.73
2022-10-02T22:17:52.536Z,180.82
2022-10-02T22:20:44.637Z,184.07
2022-10-02T22:23:30.783Z,181.27
2022-10-02T22:26:10.141Z,178.98
2022-10-02T22:28:44.805Z,176.85
2022-10-02T22:31:42.802Z,175.57
2022-10-02T22:34:23.297Z,175.48
2022-10-02T22:37:21.173Z,173.48
2022-10-02T22:39:55.302Z,165.68
2022-10-02T22:42:29.581Z,157.65
2022-10-02T22:45:01.152Z,149.80
2022-10-02T22:47:32.528Z,157.18
2022-10-02T22:50:05.889Z,159.52
2022-10-02T22:52:37.868Z,165.32
2022-10-02T22:55:11.214Z,172.32
2022-10-02T22:57:44.569Z,167.05
2022-10-02T23:00:17.786Z,167.73
2022-10-02T23:02:49.471Z,178.98
2022-10-02T23:05:22.656Z,174.43
2022-10-02T23:07:54.587Z,168.18
2022-10-02T23:10:29.000Z,172.60
2022-10-02T23:13:04.059Z,167.30
2022-10-02T23:15:39.890Z,165.82
2022-10-02T23:18:19.243Z,168.00
2022-10-02T23:20:52.748Z,161.95
2022-10-02T23:23:23.598Z,170.43
2022-10-02T23:25:53.851Z,167.95
2022-10-02T23:28:28.351Z,159.05
2022-10-02T23:31:03.267Z,154.45
2022-10-02T23:33:40.241Z,157.13
2022-10-02T23:36:17.580Z,160.10
2022-10-02T23:38:51.684Z,150.95
2022-10-02T23:41:40.138Z,139.75
2022-10-02T23:44:23.330Z,144.55
2022-10-02T23:47:03.815Z,145.15
2022-10-02T23:49:34.657Z,140.20
2022-10-02T23:52:15.361Z,143.63
2022-10-02T23:54:52.767Z,150.48
2022-10-02T23:57:33.115Z,147.55
